aviador You're here:

KVTN Decoded Metar

VALENTINE in NE, USA
Report Time2018-02-25 22:52:00
UTC Time2018-02-25 23:40:04
Flight Rules vfr VFR
Wind240° at 05 kt
W.Decomp.*RWY 21: 4.6 kt HW 1.9 kt RCW
RWY 32: 0.2 kt HW 5 kt LCW
W.Rank240° ranks 14
Current wind is below 240° avg. (7.0)
Visibility9999 m
Phenomena:N/A
Clouds:N/A
Expected CloudBase > 2,800 ft AGL from Temp-Dew spread
CeilingNone
Temp01°C (ISA -9)
Dew Point-6°C (60% RH)
AAT-3.5°C
QNH1012 hPa
Density Alt1,608 ft
Elevation2,585 ft
Report Wrong Elevation
Raw Report
KVTN 252252Z AUTO 24005KT 10SM CLR 01/M06 A2989 RMK AO2 SLP152
T00111061=

Extra information for KVTN:More info

Metar Taf Metar & Taf Last 4 Metars F.Rules Stats Wind Profile Meteogram Temp Stats Airport Information Weather charts Add Link Nearby VenuesMetar ALERT Operation Metar Decoded Social comments

AIRNAV info for KVTN